Flight Track Log - Related Links

Times and Time Zones

All times are in EDT time to prevent confusion due to time zone crossing. See the C-GKZB flight status page for this flight to view local times or setup timezone preferences in your user account.


Time Position Orientation Groundspeed Altitude Reporting Facility
EDT Latitude Longitude Course Direction KTS MPH feet Rate Location/Type
Thu 10:55:41 PM 45.3167 -75.6167 246° West 10 12 700  Level Toronto Center
Thu 10:56:07 PM 45.3167 -75.6333 270° West 180 207 1,700 2,302 Climbing Montreal Center
Thu 10:57:07 PM 45.3500 -75.5833 47° Northeast 200 230 4,000 2,350 Climbing Montreal Center
Thu 10:58:07 PM 45.3833 -75.6500 305° West 280 322 6,400 2,500 Climbing Montreal Center
Thu 10:59:07 PM 45.3833 -75.7833 270° West 290 334 9,000 2,450 Climbing Montreal Center
Thu 11:00:07 PM 45.3333 -75.8667 230° Southwest 310 357 11,300 2,400 Climbing Montreal Center
Thu 11:01:00 PM 45.2042 -76.3825 246° West  Level FlightAware Approximate
Thu 11:01:07 PM 45.3000 -76.0000 250° West 320 368 13,800  Level Montreal Center
Thu 11:02:07 PM 45.2667 -76.1167 248° West 320 368 16,400 2,250 Climbing Montreal Center
Thu 11:03:07 PM 45.2333 -76.2333 248° West 330 380 18,300 2,050 Climbing Montreal Center
Thu 11:04:07 PM 45.2000 -76.3500 248° West 330 380 20,500 2,050 Climbing Montreal Center
Thu 11:05:07 PM 45.1667 -76.4667 248° West 340 391 22,400 1,750 Climbing Montreal Center
Thu 11:06:07 PM 45.1333 -76.6167 253° West 340 391 24,000 800 Climbing Montreal Center
Thu 11:07:07 PM 45.0833 -76.7333 239° Southwest 370 426 24,000  Level Montreal Center
Thu 11:08:07 PM 45.0500 -76.9000 254° West 380 437 24,000  Level Montreal Center
Thu 11:09:07 PM 45.0000 -77.0167 239° Southwest 390 449 24,000  Level Montreal Center
Thu 11:10:07 PM 44.9667 -77.1667 253° West 390 449 24,000  Level Montreal Center
Thu 11:11:07 PM 44.9167 -77.3000 242° Southwest 390 449 24,000  Level Montreal Center
Thu 11:12:07 PM 44.8833 -77.4333 251° West 390 449 24,000  Level Montreal Center
Thu 11:13:07 PM 44.8333 -77.6000 247° West 390 449 24,000  Level Montreal Center
Thu 11:14:07 PM 44.8000 -77.7167 248° West 390 449 24,000  Level Montreal Center
Thu 11:15:07 PM 44.7333 -77.8833 241° Southwest 390 449 24,000  Level Montreal Center
Thu 11:16:07 PM 44.6833 -78.0000 239° Southwest 390 449 24,000  Level Montreal Center
Thu 11:17:07 PM 44.6167 -78.1000 227° Southwest 390 449 24,000  Level Montreal Center
Thu 11:18:07 PM 44.5667 -78.2500 245° Southwest 390 449 24,000  Level Montreal Center
Thu 11:19:07 PM 44.5000 -78.3667 231° Southwest 390 449 24,000  Level Montreal Center
Thu 11:20:07 PM 44.4500 -78.5000 242° Southwest 390 449 24,000  Level Montreal Center
Thu 11:21:07 PM 44.3667 -78.6167 225° Southwest 390 449 24,000 -450 Level Montreal Center
Thu 11:22:07 PM 44.3167 -78.7333 239° Southwest 380 437 23,100 -1,450 Descending Montreal Center
Thu 11:23:07 PM 44.2667 -78.8667 242° Southwest 370 426 21,100 -1,900 Descending Montreal Center
Thu 11:24:07 PM 44.2000 -78.9833 231° Southwest 370 426 19,300 -1,800 Descending Montreal Center
Thu 11:25:07 PM 44.1333 -79.1000 231° Southwest 360 414 17,500 -1,831 Descending Montreal Center
Thu 11:26:41 PM 44.0667 -79.2167 232° Southwest 320 368 14,600 -1,753 Descending Toronto Center
Thu 11:27:41 PM 43.9833 -79.2833 210° Southwest 290 334 13,000 -900 Descending Toronto Center
Thu 11:28:41 PM 43.9167 -79.3333 208° Southwest 290 334 12,800 -850 Descending Toronto Center
Thu 11:29:41 PM 43.8500 -79.3833 208° Southwest 280 322 11,300 -900 Descending Toronto Center
Thu 11:30:41 PM 43.7833 -79.4333 208° Southwest 280 322 11,000 -550 Descending Toronto Center
Thu 11:31:41 PM 43.7000 -79.4500 188° South 290 334 10,200 -1,200 Descending Toronto Center
Thu 11:32:41 PM 43.6333 -79.5000 208° Southwest 270 311 8,600 -1,500 Descending Toronto Center
Thu 11:33:41 PM 43.5833 -79.5333 206° Southwest 240 276 7,200 -1,450 Descending Toronto Center
Thu 11:34:41 PM 43.5333 -79.5833 216° Southwest 230 265 5,700 -1,300 Descending Toronto Center
Thu 11:35:41 PM 43.5000 -79.6500 235° Southwest 220 253 4,600 -1,050 Descending Toronto Center
Thu 11:36:41 PM 43.4500 -79.7167 224° Southwest 210 242 3,600 -800 Descending Toronto Center
Thu 11:37:41 PM 43.4833 -79.7667 313° West 210 242 3,000 -300 Descending Toronto Center
Thu 11:38:41 PM 43.5333 -79.7500 14° North 200 230 3,000 -200 Level Toronto Center
Thu 11:39:41 PM 43.5833 -79.7000 36° Northeast 190 219 2,600 -650 Descending Toronto Center
Thu 11:40:41 PM 43.6167 -79.6500 47° Northeast 170 196 1,700 -750 Descending Toronto Center
Thu 11:41:41 PM 43.6333 -79.6333 36° Northeast 120 138 1,100 -600 Descending Toronto Center
Thu 11:42:41 PM 43.6500 -79.6167 36° Northeast 110 127 500 -600 Descending Toronto Center

Login

Don't have an account? Register now (free) for customized features, flight alerts, and more!